sensor_id;sensor_type;location;lat;lon;timestamp;pressure;altitude;pressure_sealevel;temperature;humidity
17781;BME280;8498;52.516;13.790;2023-03-11T00:10:45;98302.78;;;3.71;100.00
17781;BME280;8498;52.516;13.790;2023-03-11T00:16:08;98314.34;;;3.68;100.00
17781;BME280;8498;52.516;13.790;2023-03-11T00:21:31;98322.31;;;3.66;100.00
17781;BME280;8498;52.516;13.790;2023-03-11T00:26:55;98328.06;;;3.60;100.00
17781;BME280;8498;52.516;13.790;2023-03-11T00:32:17;98350.63;;;3.63;100.00
17781;BME280;8498;52.516;13.790;2023-03-11T00:37:41;98383.16;;;3.49;100.00
17781;BME280;8498;52.516;13.790;2023-03-11T00:43:04;98398.78;;;3.40;100.00
17781;BME280;8498;52.516;13.790;2023-03-11T00:48:26;98419.47;;;3.20;100.00
17781;BME280;8498;52.516;13.790;2023-03-11T00:53:49;98429.06;;;3.09;100.00
17781;BME280;8498;52.516;13.790;2023-03-11T00:59:11;98444.97;;;2.94;100.00
17781;BME280;8498;52.516;13.790;2023-03-11T01:04:34;98449.41;;;2.81;100.00
17781;BME280;8498;52.516;13.790;2023-03-11T01:09:56;98473.47;;;2.75;100.00
17781;BME280;8498;52.516;13.790;2023-03-11T01:15:25;98482.25;;;2.74;100.00
17781;BME280;8498;52.516;13.790;2023-03-11T01:20:49;98489.41;;;2.72;100.00
17781;BME280;8498;52.516;13.790;2023-03-11T01:26:11;98509.13;;;2.65;100.00
17781;BME280;8498;52.516;13.790;2023-03-11T01:31:34;98521.28;;;2.66;100.00
17781;BME280;8498;52.516;13.790;2023-03-11T01:36:57;98528.94;;;2.69;100.00
17781;BME280;8498;52.516;13.790;2023-03-11T01:42:19;98555.56;;;2.63;100.00
17781;BME280;8498;52.516;13.790;2023-03-11T01:47:42;98559.38;;;2.59;100.00
17781;BME280;8498;52.516;13.790;2023-03-11T01:53:06;98572.69;;;2.56;100.00
17781;BME280;8498;52.516;13.790;2023-03-11T01:58:33;98588.28;;;2.45;100.00
17781;BME280;8498;52.516;13.790;2023-03-11T02:03:57;98608.53;;;2.55;100.00
17781;BME280;8498;52.516;13.790;2023-03-11T02:09:21;98632.84;;;2.45;100.00
17781;BME280;8498;52.516;13.790;2023-03-11T02:14:48;98648.25;;;2.37;100.00
17781;BME280;8498;52.516;13.790;2023-03-11T02:20:32;98663.63;;;2.41;100.00
17781;BME280;8498;52.516;13.790;2023-03-11T02:26:21;98687.88;;;2.45;100.00
17781;BME280;8498;52.516;13.790;2023-03-11T02:31:47;98702.66;;;2.46;100.00
17781;BME280;8498;52.516;13.790;2023-03-11T02:37:14;98720.66;;;2.50;100.00
17781;BME280;8498;52.516;13.790;2023-03-11T02:42:42;98747.09;;;2.47;100.00
17781;BME280;8498;52.516;13.790;2023-03-11T02:48:05;98762.72;;;2.49;100.00
17781;BME280;8498;52.516;13.790;2023-03-11T02:53:33;98785.56;;;2.47;100.00
17781;BME280;8498;52.516;13.790;2023-03-11T02:58:57;98804.75;;;2.47;100.00
17781;BME280;8498;52.516;13.790;2023-03-11T03:04:19;98833.25;;;2.52;100.00
17781;BME280;8498;52.516;13.790;2023-03-11T03:09:42;98850.66;;;2.53;100.00
17781;BME280;8498;52.516;13.790;2023-03-11T03:15:05;98861.56;;;2.47;100.00
17781;BME280;8498;52.516;13.790;2023-03-11T03:20:28;98885.97;;;2.47;100.00
17781;BME280;8498;52.516;13.790;2023-03-11T03:25:53;98899.09;;;2.47;100.00
17781;BME280;8498;52.516;13.790;2023-03-11T03:31:16;98921.47;;;2.39;100.00
17781;BME280;8498;52.516;13.790;2023-03-11T03:36:39;98942.22;;;2.42;100.00
17781;BME280;8498;52.516;13.790;2023-03-11T03:42:02;98958.59;;;2.45;100.00
17781;BME280;8498;52.516;13.790;2023-03-11T03:47:27;98983.56;;;2.51;100.00
17781;BME280;8498;52.516;13.790;2023-03-11T03:52:50;99010.75;;;2.36;100.00
17781;BME280;8498;52.516;13.790;2023-03-11T03:58:14;99027.59;;;2.46;100.00
17781;BME280;8498;52.516;13.790;2023-03-11T04:03:38;99039.66;;;2.34;100.00
17781;BME280;8498;52.516;13.790;2023-03-11T04:09:05;99068.50;;;2.48;100.00
17781;BME280;8498;52.516;13.790;2023-03-11T04:14:29;99090.19;;;2.36;100.00
17781;BME280;8498;52.516;13.790;2023-03-11T04:19:54;99106.94;;;2.34;100.00
17781;BME280;8498;52.516;13.790;2023-03-11T04:25:17;99131.44;;;2.33;100.00
17781;BME280;8498;52.516;13.790;2023-03-11T04:30:40;99140.44;;;2.43;100.00
17781;BME280;8498;52.516;13.790;2023-03-11T04:36:07;99159.94;;;2.39;100.00
17781;BME280;8498;52.516;13.790;2023-03-11T04:41:32;99173.53;;;2.30;100.00
17781;BME280;8498;52.516;13.790;2023-03-11T04:46:55;99189.69;;;2.38;100.00
17781;BME280;8498;52.516;13.790;2023-03-11T04:52:18;99198.84;;;2.45;100.00
17781;BME280;8498;52.516;13.790;2023-03-11T04:57:41;99214.94;;;2.39;100.00
17781;BME280;8498;52.516;13.790;2023-03-11T05:03:06;99222.06;;;2.37;100.00
17781;BME280;8498;52.516;13.790;2023-03-11T05:08:29;99240.97;;;2.42;100.00
17781;BME280;8498;52.516;13.790;2023-03-11T05:13:52;99259.59;;;2.37;100.00
17781;BME280;8498;52.516;13.790;2023-03-11T05:19:15;99274.09;;;2.43;100.00
17781;BME280;8498;52.516;13.790;2023-03-11T05:24:56;99293.22;;;2.45;100.00
17781;BME280;8498;52.516;13.790;2023-03-11T05:30:19;99300.81;;;2.34;100.00
17781;BME280;8498;52.516;13.790;2023-03-11T05:35:42;99319.00;;;2.37;100.00
17781;BME280;8498;52.516;13.790;2023-03-11T05:41:05;99333.13;;;2.34;100.00
17781;BME280;8498;52.516;13.790;2023-03-11T05:46:28;99352.56;;;2.46;100.00
17781;BME280;8498;52.516;13.790;2023-03-11T05:51:51;99365.50;;;2.49;100.00
17781;BME280;8498;52.516;13.790;2023-03-11T05:57:19;99381.06;;;2.36;100.00
17781;BME280;8498;52.516;13.790;2023-03-11T06:02:42;99400.38;;;2.49;100.00
17781;BME280;8498;52.516;13.790;2023-03-11T06:08:07;99418.50;;;2.54;100.00
17781;BME280;8498;52.516;13.790;2023-03-11T06:13:30;99440.22;;;2.56;100.00
17781;BME280;8498;52.516;13.790;2023-03-11T06:18:52;99446.91;;;2.46;100.00
17781;BME280;8498;52.516;13.790;2023-03-11T06:24:15;99465.69;;;2.54;100.00
17781;BME280;8498;52.516;13.790;2023-03-11T06:29:38;99467.88;;;2.62;100.00
17781;BME280;8498;52.516;13.790;2023-03-11T06:35:00;99490.38;;;2.66;100.00
17781;BME280;8498;52.516;13.790;2023-03-11T06:40:23;99492.72;;;2.70;100.00
17781;BME280;8498;52.516;13.790;2023-03-11T06:45:47;99501.56;;;2.69;99.45
17781;BME280;8498;52.516;13.790;2023-03-11T06:51:11;99523.38;;;2.85;99.18
17781;BME280;8498;52.516;13.790;2023-03-11T06:56:33;99542.81;;;2.81;98.49
17781;BME280;8498;52.516;13.790;2023-03-11T07:02:00;99557.81;;;2.79;98.05
17781;BME280;8498;52.516;13.790;2023-03-11T07:07:23;99561.16;;;2.81;98.15
17781;BME280;8498;52.516;13.790;2023-03-11T07:12:45;99584.50;;;2.70;98.53
17781;BME280;8498;52.516;13.790;2023-03-11T07:18:09;99598.94;;;2.62;98.94
17781;BME280;8498;52.516;13.790;2023-03-11T07:23:32;99601.13;;;2.53;100.00
17781;BME280;8498;52.516;13.790;2023-03-11T07:28:55;99604.59;;;2.54;100.00
17781;BME280;8498;52.516;13.790;2023-03-11T07:34:18;99627.97;;;2.41;100.00
17781;BME280;8498;52.516;13.790;2023-03-11T07:39:40;99660.59;;;2.36;100.00
17781;BME280;8498;52.516;13.790;2023-03-11T07:45:03;99665.06;;;2.34;100.00
17781;BME280;8498;52.516;13.790;2023-03-11T07:50:26;99671.59;;;2.42;100.00
17781;BME280;8498;52.516;13.790;2023-03-11T07:55:48;99690.34;;;2.69;97.53
17781;BME280;8498;52.516;13.790;2023-03-11T08:01:13;99712.22;;;2.85;95.83
17781;BME280;8498;52.516;13.790;2023-03-11T08:06:40;99739.22;;;2.70;93.98
17781;BME280;8498;52.516;13.790;2023-03-11T08:12:04;99741.28;;;2.81;94.46
17781;BME280;8498;52.516;13.790;2023-03-11T08:17:26;99754.22;;;3.01;93.48
17781;BME280;8498;52.516;13.790;2023-03-11T08:22:49;99764.06;;;3.13;91.95
17781;BME280;8498;52.516;13.790;2023-03-11T08:28:19;99774.63;;;3.29;91.27
17781;BME280;8498;52.516;13.790;2023-03-11T08:33:43;99785.13;;;3.29;91.23
17781;BME280;8498;52.516;13.790;2023-03-11T08:39:08;99800.09;;;3.27;89.97
17781;BME280;8498;52.516;13.790;2023-03-11T08:44:30;99804.00;;;3.53;90.26
17781;BME280;8498;52.516;13.790;2023-03-11T08:49:53;99824.19;;;3.35;88.15
17781;BME280;8498;52.516;13.790;2023-03-11T08:55:16;99837.75;;;3.43;87.99
17781;BME280;8498;52.516;13.790;2023-03-11T09:00:45;99843.69;;;3.47;87.08
17781;BME280;8498;52.516;13.790;2023-03-11T09:06:10;99848.00;;;3.81;88.24
17781;BME280;8498;52.516;13.790;2023-03-11T09:11:34;99861.16;;;3.81;85.88
17781;BME280;8498;52.516;13.790;2023-03-11T09:16:58;99889.03;;;3.83;86.02
17781;BME280;8498;52.516;13.790;2023-03-11T09:22:20;99882.19;;;3.96;85.37
17781;BME280;8498;52.516;13.790;2023-03-11T09:27:43;99887.09;;;3.87;85.48
17781;BME280;8498;52.516;13.790;2023-03-11T09:33:05;99894.16;;;4.02;85.47
17781;BME280;8498;52.516;13.790;2023-03-11T09:38:28;99917.44;;;4.25;84.11
17781;BME280;8498;52.516;13.790;2023-03-11T09:44:11;99927.00;;;4.26;81.05
17781;BME280;8498;52.516;13.790;2023-03-11T09:55:02;99931.25;;;3.96;82.94
17781;BME280;8498;52.516;13.790;2023-03-11T10:00:26;99947.03;;;3.96;84.49
17781;BME280;8498;52.516;13.790;2023-03-11T10:05:50;99953.97;;;4.14;83.27
17781;BME280;8498;52.516;13.790;2023-03-11T10:17:13;99975.53;;;4.68;77.75
17781;BME280;8498;52.516;13.790;2023-03-11T10:22:42;99985.09;;;4.37;75.99
17781;BME280;8498;52.516;13.790;2023-03-11T10:28:12;99996.03;;;5.40;75.73
17781;BME280;8498;52.516;13.790;2023-03-11T10:38:57;99996.34;;;4.57;76.76
17781;BME280;8498;52.516;13.790;2023-03-11T10:44:22;100007.59;;;4.43;78.59
17781;BME280;8498;52.516;13.790;2023-03-11T10:49:46;100008.53;;;4.42;79.46
17781;BME280;8498;52.516;13.790;2023-03-11T10:55:15;100021.44;;;4.14;80.27
17781;BME280;8498;52.516;13.790;2023-03-11T11:00:40;100021.69;;;4.42;80.08
17781;BME280;8498;52.516;13.790;2023-03-11T11:06:05;100031.22;;;5.39;76.98
17781;BME280;8498;52.516;13.790;2023-03-11T11:11:28;100038.53;;;5.02;76.03
17781;BME280;8498;52.516;13.790;2023-03-11T11:16:50;100037.63;;;4.39;77.57
17781;BME280;8498;52.516;13.790;2023-03-11T11:22:18;100030.13;;;4.31;78.25
17781;BME280;8498;52.516;13.790;2023-03-11T11:27:52;100040.22;;;5.35;76.05
17781;BME280;8498;52.516;13.790;2023-03-11T11:33:31;100042.84;;;4.72;78.00
17781;BME280;8498;52.516;13.790;2023-03-11T11:38:54;100048.78;;;4.60;79.00
17781;BME280;8498;52.516;13.790;2023-03-11T11:44:18;100060.06;;;4.62;79.33
17781;BME280;8498;52.516;13.790;2023-03-11T11:49:54;100053.75;;;4.49;80.23
17781;BME280;8498;52.516;13.790;2023-03-11T11:55:21;100063.66;;;4.92;79.96
17781;BME280;8498;52.516;13.790;2023-03-11T12:12:01;100065.28;;;5.10;74.37
17781;BME280;8498;52.516;13.790;2023-03-11T12:17:27;100080.31;;;4.77;76.45
17781;BME280;8498;52.516;13.790;2023-03-11T12:29:06;100078.25;;;4.82;77.83
17781;BME280;8498;52.516;13.790;2023-03-11T12:34:10;100088.66;;;6.38;72.88
17781;BME280;8498;52.516;13.790;2023-03-11T12:39:34;100083.19;;;5.51;74.72
17781;BME280;8498;52.516;13.790;2023-03-11T12:50:58;100091.09;;;5.51;72.70
17781;BME280;8498;52.516;13.790;2023-03-11T13:13:02;100124.38;;;4.56;73.73
17781;BME280;8498;52.516;13.790;2023-03-11T13:18:44;100127.84;;;4.90;74.58
17781;BME280;8498;52.516;13.790;2023-03-11T13:40:44;100157.34;;;6.94;65.63
17781;BME280;8498;52.516;13.790;2023-03-11T13:46:13;100157.22;;;7.24;64.29
17781;BME280;8498;52.516;13.790;2023-03-11T13:51:46;100168.34;;;6.87;64.00
17781;BME280;8498;52.516;13.790;2023-03-11T13:57:29;100172.00;;;5.80;66.93
17781;BME280;8498;52.516;13.790;2023-03-11T14:03:00;100184.06;;;5.37;67.33
17781;BME280;8498;52.516;13.790;2023-03-11T14:08:30;100181.44;;;6.00;66.98
17781;BME280;8498;52.516;13.790;2023-03-11T14:13:53;100185.09;;;5.66;66.90
17781;BME280;8498;52.516;13.790;2023-03-11T14:19:17;100196.59;;;5.16;66.71
17781;BME280;8498;52.516;13.790;2023-03-11T14:24:46;100208.13;;;5.47;64.89
17781;BME280;8498;52.516;13.790;2023-03-11T14:30:18;100208.13;;;4.81;65.18
17781;BME280;8498;52.516;13.790;2023-03-11T14:35:50;100214.94;;;4.85;64.23
17781;BME280;8498;52.516;13.790;2023-03-11T14:41:15;100214.25;;;5.79;63.67
17781;BME280;8498;52.516;13.790;2023-03-11T14:46:39;100220.34;;;6.26;60.95
17781;BME280;8498;52.516;13.790;2023-03-11T14:52:19;100228.44;;;6.53;58.98
17781;BME280;8498;52.516;13.790;2023-03-11T14:58:38;100228.25;;;6.56;59.89
17781;BME280;8498;52.516;13.790;2023-03-11T15:03:39;100224.44;;;6.16;61.56
17781;BME280;8498;52.516;13.790;2023-03-11T15:09:09;100237.00;;;5.64;61.17
17781;BME280;8498;52.516;13.790;2023-03-11T15:14:35;100246.63;;;5.16;60.75
17781;BME280;8498;52.516;13.790;2023-03-11T15:19:58;100258.44;;;4.75;62.99
17781;BME280;8498;52.516;13.790;2023-03-11T15:25:20;100257.03;;;4.51;64.21
17781;BME280;8498;52.516;13.790;2023-03-11T15:30:43;100255.59;;;4.62;64.23
17781;BME280;8498;52.516;13.790;2023-03-11T15:36:24;100259.38;;;4.74;64.83
17781;BME280;8498;52.516;13.790;2023-03-11T15:47:28;100261.06;;;4.40;66.00
17781;BME280;8498;52.516;13.790;2023-03-11T15:52:54;100279.72;;;4.17;66.41
17781;BME280;8498;52.516;13.790;2023-03-11T15:58:19;100277.69;;;4.05;67.41
17781;BME280;8498;52.516;13.790;2023-03-11T16:03:41;100286.84;;;3.96;67.57
17781;BME280;8498;52.516;13.790;2023-03-11T16:09:04;100298.41;;;3.94;67.57
17781;BME280;8498;52.516;13.790;2023-03-11T16:14:27;100307.03;;;3.96;68.16
17781;BME280;8498;52.516;13.790;2023-03-11T16:19:49;100309.22;;;4.05;69.15
17781;BME280;8498;52.516;13.790;2023-03-11T16:25:37;100314.91;;;3.96;68.17
17781;BME280;8498;52.516;13.790;2023-03-11T16:31:00;100331.59;;;3.76;66.84
17781;BME280;8498;52.516;13.790;2023-03-11T16:36:23;100333.00;;;3.64;67.22
17781;BME280;8498;52.516;13.790;2023-03-11T16:41:45;100343.44;;;3.47;65.37
17781;BME280;8498;52.516;13.790;2023-03-11T16:47:10;100356.44;;;3.50;66.69
17781;BME280;8498;52.516;13.790;2023-03-11T16:52:32;100356.56;;;3.47;67.60
17781;BME280;8498;52.516;13.790;2023-03-11T16:57:55;100371.13;;;3.34;67.66
17781;BME280;8498;52.516;13.790;2023-03-11T17:03:18;100373.97;;;3.29;67.82
17781;BME280;8498;52.516;13.790;2023-03-11T17:08:43;100379.47;;;3.23;68.36
17781;BME280;8498;52.516;13.790;2023-03-11T17:14:10;100377.19;;;3.16;68.72
17781;BME280;8498;52.516;13.790;2023-03-11T17:19:38;100381.63;;;3.14;69.17
17781;BME280;8498;52.516;13.790;2023-03-11T17:25:00;100384.53;;;3.08;69.08
17781;BME280;8498;52.516;13.790;2023-03-11T17:30:23;100386.47;;;3.03;70.12
17781;BME280;8498;52.516;13.790;2023-03-11T17:36:03;100397.13;;;3.00;70.42
17781;BME280;8498;52.516;13.790;2023-03-11T17:41:26;100399.06;;;2.94;70.34
17781;BME280;8498;52.516;13.790;2023-03-11T17:46:48;100402.88;;;2.87;71.11
17781;BME280;8498;52.516;13.790;2023-03-11T17:52:11;100410.31;;;2.76;72.62
17781;BME280;8498;52.516;13.790;2023-03-11T17:57:34;100415.03;;;2.68;72.81
17781;BME280;8498;52.516;13.790;2023-03-11T18:03:06;100411.72;;;2.63;72.92
17781;BME280;8498;52.516;13.790;2023-03-11T18:08:29;100417.28;;;2.55;74.21
17781;BME280;8498;52.516;13.790;2023-03-11T18:13:52;100423.00;;;2.43;74.70
17781;BME280;8498;52.516;13.790;2023-03-11T18:19:15;100431.38;;;2.30;75.28
17781;BME280;8498;52.516;13.790;2023-03-11T18:24:37;100436.97;;;2.20;76.14
17781;BME280;8498;52.516;13.790;2023-03-11T18:30:00;100439.03;;;2.12;76.74
17781;BME280;8498;52.516;13.790;2023-03-11T18:35:23;100424.25;;;2.10;77.49
17781;BME280;8498;52.516;13.790;2023-03-11T18:40:46;100432.19;;;2.08;78.44
17781;BME280;8498;52.516;13.790;2023-03-11T18:46:10;100433.88;;;2.09;78.33
17781;BME280;8498;52.516;13.790;2023-03-11T18:51:35;100431.22;;;2.11;78.81
17781;BME280;8498;52.516;13.790;2023-03-11T18:56:57;100438.91;;;2.15;79.08
17781;BME280;8498;52.516;13.790;2023-03-11T19:02:20;100445.75;;;2.19;78.99
17781;BME280;8498;52.516;13.790;2023-03-11T19:07:42;100440.50;;;2.19;78.90
17781;BME280;8498;52.516;13.790;2023-03-11T19:13:05;100443.25;;;2.16;79.40
17781;BME280;8498;52.516;13.790;2023-03-11T19:18:27;100438.28;;;2.09;79.94
17781;BME280;8498;52.516;13.790;2023-03-11T19:23:49;100451.66;;;2.01;80.65
17781;BME280;8498;52.516;13.790;2023-03-11T19:29:14;100442.50;;;1.90;81.30
17781;BME280;8498;52.516;13.790;2023-03-11T19:34:36;100454.53;;;1.95;81.41
17781;BME280;8498;52.516;13.790;2023-03-11T19:40:00;100461.28;;;2.01;81.01
17781;BME280;8498;52.516;13.790;2023-03-11T19:45:23;100454.53;;;1.95;80.87
17781;BME280;8498;52.516;13.790;2023-03-11T19:50:49;100458.00;;;1.96;81.17
17781;BME280;8498;52.516;13.790;2023-03-11T19:56:13;100458.84;;;1.96;81.40
17781;BME280;8498;52.516;13.790;2023-03-11T20:01:37;100456.22;;;1.96;81.32
17781;BME280;8498;52.516;13.790;2023-03-11T20:06:59;100455.44;;;1.94;81.58
17781;BME280;8498;52.516;13.790;2023-03-11T20:12:22;100446.75;;;1.92;81.51
17781;BME280;8498;52.516;13.790;2023-03-11T20:17:45;100449.63;;;1.86;82.06
17781;BME280;8498;52.516;13.790;2023-03-11T20:23:08;100462.72;;;1.86;82.54
17781;BME280;8498;52.516;13.790;2023-03-11T20:28:30;100468.91;;;1.83;82.83
17781;BME280;8498;52.516;13.790;2023-03-11T20:33:54;100457.56;;;1.83;82.86
17781;BME280;8498;52.516;13.790;2023-03-11T20:39:16;100462.88;;;1.81;83.24
17781;BME280;8498;52.516;13.790;2023-03-11T20:44:39;100454.97;;;1.83;83.03
17781;BME280;8498;52.516;13.790;2023-03-11T20:50:02;100465.44;;;1.83;82.87
17781;BME280;8498;52.516;13.790;2023-03-11T20:55:25;100465.59;;;1.78;83.22
17781;BME280;8498;52.516;13.790;2023-03-11T21:00:48;100465.63;;;1.77;82.99
17781;BME280;8498;52.516;13.790;2023-03-11T21:06:19;100466.44;;;1.79;83.32
17781;BME280;8498;52.516;13.790;2023-03-11T21:11:42;100461.09;;;1.82;83.29
17781;BME280;8498;52.516;13.790;2023-03-11T21:17:04;100452.44;;;1.80;83.24
17781;BME280;8498;52.516;13.790;2023-03-11T21:22:27;100468.59;;;1.68;83.16
17781;BME280;8498;52.516;13.790;2023-03-11T21:27:50;100464.16;;;1.70;83.52
17781;BME280;8498;52.516;13.790;2023-03-11T21:33:13;100457.91;;;1.74;83.39
17781;BME280;8498;52.516;13.790;2023-03-11T21:38:35;100456.28;;;1.70;83.10
17781;BME280;8498;52.516;13.790;2023-03-11T21:43:59;100454.72;;;1.66;83.62
17781;BME280;8498;52.516;13.790;2023-03-11T21:49:22;100460.97;;;1.62;83.67
17781;BME280;8498;52.516;13.790;2023-03-11T21:54:45;100453.31;;;1.56;83.95
17781;BME280;8498;52.516;13.790;2023-03-11T22:00:08;100453.38;;;1.54;83.56
17781;BME280;8498;52.516;13.790;2023-03-11T22:05:31;100450.75;;;1.54;83.69
17781;BME280;8498;52.516;13.790;2023-03-11T22:10:54;100445.53;;;1.54;83.52
17781;BME280;8498;52.516;13.790;2023-03-11T22:16:18;100449.09;;;1.52;83.45
17781;BME280;8498;52.516;13.790;2023-03-11T22:21:41;100459.63;;;1.50;83.22
17781;BME280;8498;52.516;13.790;2023-03-11T22:27:04;100459.53;;;1.53;83.34
17781;BME280;8498;52.516;13.790;2023-03-11T22:32:27;100454.28;;;1.53;83.48
17781;BME280;8498;52.516;13.790;2023-03-11T22:37:49;100456.03;;;1.53;83.34
17781;BME280;8498;52.516;13.790;2023-03-11T22:43:12;100450.09;;;1.47;83.09
17781;BME280;8498;52.516;13.790;2023-03-11T22:48:35;100462.31;;;1.47;83.09
17781;BME280;8498;52.516;13.790;2023-03-11T22:53:58;100466.38;;;1.31;83.27
17781;BME280;8498;52.516;13.790;2023-03-11T22:59:20;100465.94;;;1.44;83.32
17781;BME280;8498;52.516;13.790;2023-03-11T23:04:43;100467.75;;;1.42;83.15
17781;BME280;8498;52.516;13.790;2023-03-11T23:10:08;100467.84;;;1.39;83.06
17781;BME280;8498;52.516;13.790;2023-03-11T23:15:32;100470.44;;;1.39;82.98
17781;BME280;8498;52.516;13.790;2023-03-11T23:20:55;100474.78;;;1.40;82.50
17781;BME280;8498;52.516;13.790;2023-03-11T23:26:17;100464.41;;;1.37;82.79
17781;BME280;8498;52.516;13.790;2023-03-11T23:31:40;100464.41;;;1.37;82.26
17781;BME280;8498;52.516;13.790;2023-03-11T23:37:02;100464.41;;;1.37;82.15
17781;BME280;8498;52.516;13.790;2023-03-11T23:42:26;100473.50;;;1.52;81.59
17781;BME280;8498;52.516;13.790;2023-03-11T23:47:49;100469.44;;;1.43;81.25
17781;BME280;8498;52.516;13.790;2023-03-11T23:53:12;100471.78;;;1.51;80.92
17781;BME280;8498;52.516;13.790;2023-03-11T23:58:35;100466.78;;;1.45;81.17
